Time;durP1;ratioP1;P1;durP2;ratioP2;P2;SDS_P1;SDS_P2;PMS_P1;PMS_P2;Temp;Humidity;BMP_temperature;BMP_pressure;BME280_temperature;BME280_humidity;BME280_pressure;Samples;Min_cycle;Max_cycle;Signal;HPM_P1;HPM_P2
2021/04/12 04:01:23;;;;;;;2.20;1.97;;;0.60;96.30;;;;;;5557830;23;20493;-79
2021/04/12 04:04:07;;;;;;;2.93;2.73;;;0.50;96.30;;;;;;4965165;28;20937;-79
2021/04/12 04:06:52;;;;;;;2.70;2.50;;;0.40;96.30;;;;;;4986993;28;20454;-78
2021/04/12 04:10:02;;;;;;;1.70;1.60;;;0.40;96.30;;;;;;4955226;28;20469;-77
2021/04/12 04:12:46;;;;;;;1.83;1.73;;;0.40;96.30;;;;;;4948400;29;20447;-76
2021/04/12 04:15:36;;;;;;;2.37;2.17;;;0.30;96.30;;;;;;4979588;23;20497;-78
2021/04/12 04:18:02;;;;;;;2.10;1.80;;;0.30;96.30;;;;;;4964368;28;20535;-78
2021/04/12 04:20:51;;;;;;;2.73;2.43;;;0.30;96.30;;;;;;4972606;28;21076;-78
2021/04/12 04:23:39;;;;;;;2.53;2.30;;;0.40;96.30;;;;;;4974737;28;20185;-78
2021/04/12 04:26:25;;;;;;;2.53;2.33;;;0.30;96.30;;;;;;4974766;28;20940;-78
2021/04/12 04:29:15;;;;;;;2.50;2.17;;;0.40;96.30;;;;;;4972955;28;20454;-78
2021/04/12 04:32:00;;;;;;;2.50;2.30;;;0.40;96.30;;;;;;4974896;28;20489;-78
2021/04/12 04:34:54;;;;;;;2.50;2.30;;;0.40;96.30;;;;;;4974838;28;20408;-78
2021/04/12 04:37:53;;;;;;;2.50;2.20;;;0.30;96.30;;;;;;4974300;28;20767;-78
2021/04/12 04:40:22;;;;;;;1.67;1.57;;;;;;;;;;4951853;28;21151;-78
2021/04/12 04:43:03;;;;;;;1.20;1.10;;;;;;;;;;4974611;28;20398;-79
2021/04/12 04:45:29;;;;;;;2.23;1.70;;;;;;;;;;4959976;28;20470;-78
2021/04/12 04:48:40;;;;;;;1.50;1.40;;;0.30;96.30;;;;;;4954755;29;20423;-78
2021/04/12 04:51:24;;;;;;;1.13;1.03;;;0.30;96.30;;;;;;4924708;29;20449;-78
2021/04/12 04:54:12;;;;;;;1.10;1.00;;;0.30;96.30;;;;;;4955087;28;20411;-78
2021/04/12 04:57:16;;;;;;;1.83;1.43;;;0.30;96.30;;;;;;4954417;29;20430;-78
2021/04/12 05:00:05;;;;;;;1.40;1.30;;;0.30;96.30;;;;;;4922328;29;20549;-77
2021/04/12 05:02:49;;;;;;;1.43;0.97;;;0.30;96.30;;;;;;4955044;29;20394;-78
2021/04/12 05:05:39;;;;;;;0.90;0.80;;;0.20;96.30;;;;;;4954861;29;20419;-78
2021/04/12 05:08:53;;;;;;;1.10;1.00;;;0.20;96.30;;;;;;4954388;28;20544;-78
2021/04/12 05:11:31;;;;;;;2.60;1.23;;;0.20;96.30;;;;;;4940042;28;20855;-78
2021/04/12 05:14:36;;;;;;;3.67;0.90;;;0.20;96.30;;;;;;4971747;28;20936;-78
2021/04/12 05:17:30;;;;;;;0.90;0.80;;;0.10;96.30;;;;;;4954776;28;20473;-79
2021/04/12 05:20:23;;;;;;;1.00;0.90;;;;;;;;;;4968354;28;20454;-79
2021/04/12 05:23:23;;;;;;;1.00;0.83;;;0.10;96.30;;;;;;4943192;28;20403;-79
2021/04/12 05:26:03;;;;;;;1.13;0.97;;;0.10;96.30;;;;;;4954422;28;20478;-78
2021/04/12 05:28:50;;;;;;;1.00;0.73;;;0.10;96.30;;;;;;4963554;28;20460;-79
2021/04/12 05:31:42;;;;;;;0.90;0.63;;;0.10;96.30;;;;;;4970720;28;20449;-79
2021/04/12 05:34:32;;;;;;;0.80;0.60;;;0.00;96.30;;;;;;4971488;28;20414;-79
2021/04/12 05:37:15;;;;;;;0.77;0.50;;;;;;;;;;4965558;28;20765;-78
2021/04/12 05:40:13;;;;;;;0.80;0.60;;;0.00;96.30;;;;;;4954314;29;20447;-79
2021/04/12 05:43:07;;;;;;;0.80;0.50;;;0.00;96.30;;;;;;4934933;29;20766;-78
2021/04/12 05:46:08;;;;;;;1.00;0.70;;;-0.10;96.30;;;;;;4936456;29;20431;-79
2021/04/12 05:48:58;;;;;;;0.90;0.60;;;0.00;96.30;;;;;;4943988;29;20423;-80
2021/04/12 05:51:51;;;;;;;0.80;0.60;;;0.00;96.30;;;;;;4941910;29;20428;-79
2021/04/12 05:54:45;;;;;;;0.80;0.60;;;0.00;96.30;;;;;;4953303;29;20475;-79
2021/04/12 05:57:48;;;;;;;0.80;0.57;;;0.00;96.30;;;;;;4941931;29;20945;-79
2021/04/12 06:00:51;;;;;;;0.80;0.50;;;0.00;96.30;;;;;;4933722;29;20419;-78
2021/04/12 06:03:32;;;;;;;0.83;0.60;;;0.00;96.30;;;;;;4934849;29;20498;-79
2021/04/12 06:06:29;;;;;;;0.80;0.50;;;0.00;96.30;;;;;;4934863;29;20927;-78
2021/04/12 06:09:42;;;;;;;0.80;0.60;;;0.10;96.30;;;;;;4934359;29;20766;-78
2021/04/12 06:12:50;;;;;;;0.80;0.60;;;0.10;96.30;;;;;;4876198;29;20942;-78
2021/04/12 06:15:55;;;;;;;0.90;0.60;;;0.10;96.30;;;;;;4934792;29;21078;-78
2021/04/12 06:18:49;;;;;;;0.80;0.60;;;0.20;96.30;;;;;;4947109;29;20445;-77
2021/04/12 06:21:42;;;;;;;0.80;0.60;;;0.20;96.30;;;;;;4938349;29;20418;-77
2021/04/12 06:24:19;;;;;;;0.90;0.67;;;0.30;96.30;;;;;;4937163;29;20501;-77
2021/04/12 06:27:20;;;;;;;1.00;0.70;;;0.40;96.30;;;;;;4953720;28;20427;-77
2021/04/12 06:29:55;;;;;;;0.90;0.60;;;0.40;96.30;;;;;;4953082;29;21008;-76
2021/04/12 06:32:57;;;;;;;0.90;0.73;;;0.50;96.30;;;;;;4952568;28;20422;-77
2021/04/12 06:35:49;;;;;;;1.00;0.90;;;0.60;96.30;;;;;;4934231;29;20950;-77
2021/04/12 06:38:36;;;;;;;1.03;0.93;;;0.80;96.30;;;;;;4934991;29;20454;-76
2021/04/12 06:41:18;;;;;;;1.03;0.93;;;0.90;96.30;;;;;;4938010;29;20763;-77
2021/04/12 06:44:17;;;;;;;1.40;1.30;;;0.90;96.30;;;;;;4937883;29;20954;-76
2021/04/12 06:47:30;;;;;;;1.43;1.33;;;1.00;96.30;;;;;;4937895;29;20435;-76
2021/04/12 06:50:10;;;;;;;1.10;0.97;;;1.00;96.30;;;;;;4933221;29;20490;-76
2021/04/12 06:53:09;;;;;;;1.30;1.20;;;1.10;96.30;;;;;;4937780;29;20756;-76
2021/04/12 06:55:53;;;;;;;1.40;1.30;;;1.20;96.30;;;;;;4937693;29;20525;-76
2021/04/12 06:58:42;;;;;;;1.93;1.63;;;1.10;96.30;;;;;;4937116;29;20478;-76
2021/04/12 07:01:45;;;;;;;4.67;1.60;;;1.20;96.30;;;;;;4951876;28;20418;-76
2021/04/12 07:04:42;;;;;;;2.00;1.80;;;1.20;96.30;;;;;;4943566;29;20414;-76
2021/04/12 07:07:08;;;;;;;1.50;1.40;;;1.40;96.30;;;;;;4956248;29;20768;-77
2021/04/12 07:09:52;;;;;;;1.87;1.77;;;1.40;96.30;;;;;;4954988;28;20425;-76
2021/04/12 07:12:59;;;;;;;1.50;1.40;;;1.60;96.30;;;;;;4953560;29;20179;-77
2021/04/12 07:15:59;;;;;;;3.03;2.00;;;1.60;96.30;;;;;;4955860;28;20954;-77
2021/04/12 07:18:45;;;;;;;2.40;2.17;;;1.70;96.30;;;;;;4966246;28;20468;-77
2021/04/12 07:21:32;;;;;;;2.20;2.00;;;1.50;96.30;;;;;;4951168;29;20418;-77
2021/04/12 07:24:11;;;;;;;2.17;2.07;;;1.30;96.30;;;;;;4958400;28;20985;-77
2021/04/12 07:27:15;;;;;;;2.10;1.90;;;1.50;96.30;;;;;;4957780;29;20848;-77
2021/04/12 07:30:19;;;;;;;1.83;1.53;;;1.70;96.30;;;;;;4956416;29;20465;-77
2021/04/12 07:33:03;;;;;;;2.70;2.50;;;1.80;96.30;;;;;;4954870;29;20780;-77
2021/04/12 07:35:47;;;;;;;2.10;1.90;;;1.60;96.30;;;;;;4955964;29;20517;-77
2021/04/12 07:38:54;;;;;;;2.37;2.17;;;1.60;96.30;;;;;;4954559;29;20450;-77
2021/04/12 07:41:45;;;;;;;2.60;2.40;;;1.70;96.30;;;;;;4956073;29;20418;-77
2021/04/12 07:44:29;;;;;;;3.03;2.73;;;1.60;96.30;;;;;;4955140;29;20848;-76
2021/04/12 07:47:32;;;;;;;2.30;2.10;;;1.60;96.30;;;;;;4954712;29;20453;-76
2021/04/12 07:50:25;;;;;;;3.10;2.80;;;1.60;96.30;;;;;;4953800;28;20914;-76
2021/04/12 07:53:27;;;;;;;5.20;3.00;;;1.50;96.30;;;;;;4956242;29;20486;-76
2021/04/12 07:56:34;;;;;;;3.43;2.40;;;1.60;96.30;;;;;;4955393;29;20532;-76
2021/04/12 07:59:26;;;;;;;2.77;2.20;;;1.70;96.30;;;;;;4948491;29;21156;-77
2021/04/12 08:02:13;;;;;;;2.47;2.27;;;1.90;96.30;;;;;;4954412;29;20457;-77
2021/04/12 08:05:12;;;;;;;2.60;2.40;;;1.90;96.30;;;;;;4972512;28;20414;-77
2021/04/12 08:08:17;;;;;;;3.30;3.00;;;1.80;96.30;;;;;;4974561;28;20429;-76
2021/04/12 08:10:55;;;;;;;3.50;3.20;;;1.90;96.30;;;;;;4963659;28;20422;-76
2021/04/12 08:14:03;;;;;;;3.50;3.20;;;2.20;96.30;;;;;;4955014;29;20414;-76
2021/04/12 08:17:01;;;;;;;3.03;2.73;;;2.10;96.30;;;;;;4927416;29;20958;-77
2021/04/12 08:19:42;;;;;;;2.80;2.60;;;2.20;96.30;;;;;;4955522;28;20529;-77
2021/04/12 08:22:21;;;;;;;2.60;2.37;;;2.20;96.30;;;;;;4955465;29;20461;-77
2021/04/12 08:25:05;;;;;;;2.57;2.37;;;2.20;96.30;;;;;;4954941;29;20749;-77
2021/04/12 08:28:08;;;;;;;3.23;2.93;;;2.30;96.30;;;;;;4957481;28;20472;-77
2021/04/12 08:31:23;;;;;;;3.63;3.33;;;2.50;96.30;;;;;;4955557;29;20505;-77
2021/04/12 08:34:26;;;;;;;3.40;3.10;;;2.50;96.30;;;;;;4935899;28;20431;-77
2021/04/12 08:36:58;;;;;;;3.50;3.20;;;2.50;96.30;;;;;;4948459;29;20456;-77
2021/04/12 08:39:52;;;;;;;2.33;2.13;;;2.50;96.30;;;;;;4954816;29;20934;-77
2021/04/12 08:42:37;;;;;;;2.70;2.50;;;2.50;96.30;;;;;;4955254;28;20522;-78
2021/04/12 08:45:24;;;;;;;3.53;3.00;;;2.40;96.30;;;;;;4953998;28;20585;-77
2021/04/12 08:48:12;;;;;;;3.80;3.50;;;2.40;96.30;;;;;;4954343;29;20738;-78
2021/04/12 08:50:47;;;;;;;3.37;3.07;;;2.10;96.30;;;;;;4953922;29;20505;-78
2021/04/12 08:53:31;;;;;;;3.37;3.07;;;2.00;96.30;;;;;;4955236;29;20405;-78
2021/04/12 08:56:27;;;;;;;4.30;3.37;;;2.00;96.30;;;;;;4955244;28;20470;-77
2021/04/12 08:59:26;;;;;;;3.80;3.40;;;2.20;96.30;;;;;;4954416;29;20544;-78
2021/04/12 09:02:22;;;;;;;4.90;4.00;;;2.30;96.30;;;;;;4935393;29;21163;-78
2021/04/12 09:05:13;;;;;;;4.00;3.60;;;2.30;96.30;;;;;;4940887;29;20411;-77
2021/04/12 09:07:41;;;;;;;5.23;4.73;;;2.60;96.30;;;;;;4952760;29;20415;-77
2021/04/12 09:10:31;;;;;;;4.53;4.13;;;2.60;96.30;;;;;;4954828;29;20446;-77
2021/04/12 09:13:36;;;;;;;4.73;4.10;;;2.70;96.30;;;;;;4954591;28;20411;-76
2021/04/12 09:16:23;;;;;;;3.87;3.47;;;2.80;96.30;;;;;;4952355;29;20537;-76
2021/04/12 09:18:51;;;;;;;4.10;3.70;;;2.90;96.30;;;;;;4939540;29;20469;-76
2021/04/12 09:21:51;;;;;;;3.53;3.23;;;2.70;96.30;;;;;;4953920;29;20425;-76
2021/04/12 09:24:55;;;;;;;4.20;3.37;;;3.10;96.30;;;;;;4954161;28;20429;-76
2021/04/12 09:27:20;;;;;;;4.23;3.83;;;3.00;96.30;;;;;;4953952;29;20811;-76
2021/04/12 09:30:10;;;;;;;4.40;4.00;;;2.90;96.30;;;;;;4954261;28;20515;-77
2021/04/12 09:33:00;;;;;;;4.20;3.80;;;3.00;96.30;;;;;;4954385;29;20530;-77
2021/04/12 09:35:44;;;;;;;5.20;4.20;;;3.00;96.30;;;;;;4954399;29;20431;-77
2021/04/12 09:38:47;;;;;;;6.13;4.77;;;3.00;96.30;;;;;;4953327;28;20497;-77
2021/04/12 09:41:43;;;;;;;4.33;4.00;;;3.10;96.30;;;;;;4954263;29;20489;-77
2021/04/12 09:44:36;;;;;;;3.93;3.63;;;3.00;96.30;;;;;;4954316;29;20398;-77
2021/04/12 09:47:35;;;;;;;4.27;3.50;;;3.30;96.30;;;;;;4953580;29;20434;-77
2021/04/12 09:50:42;;;;;;;3.97;3.67;;;3.30;96.30;;;;;;4954194;28;20417;-77
2021/04/12 09:53:30;;;;;;;4.10;3.40;;;3.30;96.30;;;;;;4933907;29;20423;-77
2021/04/12 09:56:12;;;;;;;4.43;3.90;;;3.30;96.30;;;;;;4953416;29;20538;-77
2021/04/12 09:58:43;;;;;;;4.00;3.60;;;3.20;96.30;;;;;;4953128;29;20501;-77
2021/04/12 10:01:19;;;;;;;3.93;2.90;;;3.30;96.30;;;;;;4954003;29;20501;-77
2021/04/12 10:04:26;;;;;;;4.20;3.80;;;3.20;96.30;;;;;;4954105;29;20414;-77
2021/04/12 10:07:12;;;;;;;3.10;2.73;;;3.10;96.30;;;;;;4953324;28;20461;-77
2021/04/12 10:09:48;;;;;;;4.33;3.93;;;3.40;96.30;;;;;;4953773;29;20403;-77
2021/04/12 10:12:35;;;;;;;4.60;3.60;;;3.50;96.30;;;;;;4954020;28;20469;-78
2021/04/12 10:15:23;;;;;;;10.90;3.27;;;3.40;96.30;;;;;;4957813;28;20460;-78
2021/04/12 10:17:53;;;;;;;3.87;3.57;;;3.40;96.30;;;;;;4957331;29;20963;-78
2021/04/12 10:20:28;;;;;;;4.40;3.80;;;3.40;96.30;;;;;;4958261;28;20493;-78
2021/04/12 10:23:00;;;;;;;3.10;2.80;;;3.30;96.30;;;;;;4957879;28;20414;-78
2021/04/12 10:25:36;;;;;;;3.83;3.47;;;3.20;96.30;;;;;;4957599;28;20426;-77
2021/04/12 10:28:13;;;;;;;2.77;2.57;;;3.10;96.30;;;;;;4957105;29;20410;-77
2021/04/12 10:31:07;;;;;;;3.90;3.23;;;3.20;96.30;;;;;;4998189;23;20415;-72
2021/04/12 10:33:49;;;;;;;3.30;2.97;;;2.80;96.30;;;;;;4948635;29;20441;-72
2021/04/12 10:36:24;;;;;;;3.60;2.97;;;2.50;96.30;;;;;;4957675;29;20758;-71
2021/04/12 10:39:02;;;;;;;3.53;3.23;;;2.20;96.30;;;;;;4956807;29;20933;-72
2021/04/12 10:41:43;;;;;;;2.67;2.47;;;2.00;96.30;;;;;;4950089;28;20450;-72
2021/04/12 10:44:12;;;;;;;3.43;3.00;;;1.90;96.30;;;;;;4951581;29;20801;-71
2021/04/12 10:46:58;;;;;;;3.17;2.50;;;2.00;96.30;;;;;;4955407;29;20509;-72
2021/04/12 10:50:17;;;;;;;8.67;2.90;;;1.90;96.30;;;;;;4956744;28;20419;-72
2021/04/12 10:53:21;;;;;;;3.60;3.30;;;1.90;96.30;;;;;;4954075;29;20942;-72
2021/04/12 10:55:55;;;;;;;3.73;3.30;;;2.00;96.30;;;;;;4956933;29;20440;-72
2021/04/12 10:58:39;;;;;;;4.07;3.53;;;2.00;96.30;;;;;;4956188;28;20458;-72
2021/04/12 11:01:07;;;;;;;3.83;3.20;;;2.00;96.30;;;;;;4956175;29;21089;-72
2021/04/12 11:03:47;;;;;;;2.70;2.47;;;2.10;96.30;;;;;;4956711;29;20442;-72
2021/04/12 11:06:42;;;;;;;3.17;2.70;;;2.10;96.30;;;;;;4956806;28;20917;-72
2021/04/12 11:09:24;;;;;;;4.90;3.13;;;2.00;96.30;;;;;;4955390;28;20426;-72
2021/04/12 11:12:07;;;;;;;3.77;3.27;;;2.10;96.30;;;;;;4937747;29;20435;-72
2021/04/12 11:14:56;;;;;;;3.10;2.80;;;2.20;96.30;;;;;;4956312;29;20418;-71
2021/04/12 11:17:35;;;;;;;3.77;2.80;;;2.30;96.30;;;;;;4954667;29;20419;-71
2021/04/12 11:20:27;;;;;;;3.70;3.30;;;2.70;96.30;;;;;;4955217;29;20449;-71
2021/04/12 11:22:58;;;;;;;3.83;3.10;;;3.20;96.30;;;;;;4937795;29;20400;-71
2021/04/12 11:25:23;;;;;;;3.80;2.60;;;;;;;;;;4936982;29;20446;-71
2021/04/12 11:28:02;;;;;;;2.73;2.40;;;3.50;96.30;;;;;;4962518;28;20989;-71
2021/04/12 11:30:54;;;;;;;3.53;3.00;;;3.40;96.30;;;;;;4975822;28;20185;-71
2021/04/12 11:33:47;;;;;;;3.90;2.60;;;3.40;96.30;;;;;;4953446;29;21037;-71
2021/04/12 11:36:44;;;;;;;2.97;2.67;;;3.50;96.30;;;;;;4956452;28;20710;-71
2021/04/12 11:39:18;;;;;;;4.00;2.47;;;3.70;96.30;;;;;;4955835;28;20549;-71
2021/04/12 11:42:00;;;;;;;3.07;2.30;;;3.50;96.30;;;;;;4955130;29;20457;-71
2021/04/12 11:44:39;;;;;;;3.00;2.23;;;3.30;96.30;;;;;;4937790;28;20522;-71
2021/04/12 11:47:22;;;;;;;3.20;2.40;;;3.20;96.30;;;;;;4936270;29;20422;-71
2021/04/12 11:50:15;;;;;;;3.10;2.63;;;3.00;96.30;;;;;;4937210;29;20484;-71
2021/04/12 11:52:57;;;;;;;3.23;2.50;;;3.00;96.30;;;;;;4935924;29;20451;-71
2021/04/12 11:55:36;;;;;;;2.67;2.43;;;3.00;96.30;;;;;;4936601;29;20494;-71
2021/04/12 11:58:18;;;;;;;3.50;2.67;;;2.70;96.30;;;;;;4941959;28;20434;-71
2021/04/12 12:00:56;;;;;;;4.00;3.00;;;2.80;96.30;;;;;;4954716;29;20431;-71
2021/04/12 12:04:04;;;;;;;5.73;3.20;;;2.70;96.30;;;;;;4955639;29;20434;-71
2021/04/12 12:06:51;;;;;;;3.93;2.60;;;2.80;96.30;;;;;;4950709;29;20423;-71
2021/04/12 12:09:41;;;;;;;3.67;2.63;;;3.00;96.30;;;;;;4954235;29;20777;-71
2021/04/12 12:12:18;;;;;;;2.40;2.10;;;2.90;96.30;;;;;;4955874;29;20452;-71
2021/04/12 12:15:06;;;;;;;2.73;2.50;;;2.80;96.30;;;;;;4955232;28;20450;-71
2021/04/12 12:17:44;;;;;;;4.37;3.00;;;3.00;96.30;;;;;;4955050;28;20422;-71
2021/04/12 12:20:20;;;;;;;2.47;2.20;;;3.50;96.30;;;;;;4955538;29;20461;-72
2021/04/12 12:23:10;;;;;;;3.37;2.80;;;3.90;96.30;;;;;;4955513;29;20453;-73
2021/04/12 12:25:43;;;;;;;2.20;2.00;;;4.10;96.30;;;;;;4955683;28;20409;-73
2021/04/12 12:28:14;;;;;;;2.60;2.20;;;4.10;96.30;;;;;;4954713;29;20480;-73
2021/04/12 12:31:07;;;;;;;3.23;2.57;;;4.30;96.30;;;;;;4954653;28;20939;-73
2021/04/12 12:34:00;;;;;;;3.37;2.67;;;4.20;96.30;;;;;;4936196;29;20423;-73
2021/04/12 12:36:55;;;;;;;3.97;2.40;;;4.00;96.30;;;;;;4936634;29;20427;-73
2021/04/12 12:39:36;;;;;;;3.07;1.93;;;3.80;96.30;;;;;;4935629;29;20827;-73
2021/04/12 12:42:06;;;;;;;2.97;2.43;;;3.50;96.30;;;;;;4954410;29;20832;-73
2021/04/12 12:44:34;;;;;;;4.80;2.70;;;3.20;96.30;;;;;;4945155;28;20424;-73
2021/04/12 12:47:07;;;;;;;4.00;2.07;;;2.70;96.30;;;;;;4940041;29;20794;-71
2021/04/12 12:49:38;;;;;;;3.60;2.80;;;2.30;96.30;;;;;;4947267;29;20435;-72
2021/04/12 12:52:12;;;;;;;3.60;3.30;;;2.20;96.30;;;;;;4935602;29;20547;-72
2021/04/12 12:54:51;;;;;;;5.97;3.37;;;2.30;96.30;;;;;;4950483;28;20439;-72
2021/04/12 12:57:17;;;;;;;4.43;3.23;;;2.50;96.30;;;;;;4936983;29;20419;-72
2021/04/12 12:59:52;;;;;;;4.73;3.13;;;2.70;96.30;;;;;;4935279;29;20481;-74
2021/04/12 13:02:34;;;;;;;5.17;3.47;;;3.30;96.30;;;;;;4936916;29;20290;-74
2021/04/12 13:05:09;;;;;;;4.40;3.60;;;4.10;96.30;;;;;;4941164;29;20497;-74
2021/04/12 13:07:37;;;;;;;3.63;3.10;;;4.70;96.30;;;;;;4953508;28;20501;-74
2021/04/12 13:10:07;;;;;;;4.43;2.90;;;4.80;96.30;;;;;;4951541;28;20433;-74
2021/04/12 13:12:36;;;;;;;3.10;2.70;;;4.80;96.30;;;;;;4951415;28;20461;-74
2021/04/12 13:15:15;;;;;;;3.97;2.67;;;4.80;96.30;;;;;;4954771;29;20891;-74
2021/04/12 13:17:41;;;;;;;2.50;2.30;;;4.50;96.30;;;;;;4954139;28;20425;-74
2021/04/12 13:20:31;;;;;;;3.33;2.20;;;4.40;96.30;;;;;;4954449;28;20604;-73
2021/04/12 13:23:15;;;;;;;4.27;2.60;;;4.30;96.30;;;;;;4954618;28;20826;-73
2021/04/12 13:25:47;;;;;;;2.90;2.63;;;4.00;96.30;;;;;;4954413;28;20422;-73
2021/04/12 13:28:23;;;;;;;4.03;2.37;;;3.70;96.30;;;;;;4954285;29;20426;-73
2021/04/12 13:31:04;;;;;;;2.60;2.40;;;3.50;96.30;;;;;;4954672;28;20438;-73
2021/04/12 13:33:36;;;;;;;3.97;2.10;;;3.10;96.30;;;;;;4954453;28;20844;-73
2021/04/12 13:36:22;;;;;;;4.13;2.67;;;2.70;96.30;;;;;;4953135;28;20827;-71
2021/04/12 13:38:51;;;;;;;2.50;2.30;;;2.60;96.30;;;;;;4934631;29;20469;-71
2021/04/12 13:41:24;;;;;;;2.73;2.53;;;2.50;96.30;;;;;;4940697;29;20438;-72
2021/04/12 13:43:55;;;;;;;6.93;2.43;;;2.80;96.30;;;;;;4955180;28;20891;-72
2021/04/12 13:46:26;;;;;;;2.27;2.07;;;3.00;96.30;;;;;;4954266;28;20432;-74
2021/04/12 13:49:01;;;;;;;6.30;2.50;;;3.10;96.30;;;;;;4953675;28;20399;-74
2021/04/12 13:51:43;;;;;;;2.53;2.20;;;3.40;96.30;;;;;;4949210;28;20528;-74
2021/04/12 13:54:20;;;;;;;3.43;2.50;;;3.50;96.30;;;;;;4946355;29;20518;-74
2021/04/12 13:56:50;;;;;;;4.00;2.60;;;3.40;96.30;;;;;;4935107;28;20423;-73
2021/04/12 13:59:26;;;;;;;2.70;2.50;;;3.00;96.30;;;;;;4934201;29;20522;-74
2021/04/12 14:02:03;;;;;;;6.70;2.90;;;2.80;96.30;;;;;;4946550;29;20460;-74
2021/04/12 14:04:39;;;;;;;3.37;2.97;;;2.80;96.30;;;;;;4943485;28;20406;-74
2021/04/12 14:07:12;;;;;;;5.23;3.60;;;2.70;96.30;;;;;;4943146;29;20422;-71
2021/04/12 14:09:51;;;;;;;5.93;3.20;;;2.70;96.30;;;;;;4949217;28;20477;-72
2021/04/12 14:12:31;;;;;;;5.70;3.87;;;2.90;96.30;;;;;;4939080;28;20973;-72
2021/04/12 14:15:04;;;;;;;6.13;4.10;;;2.90;96.30;;;;;;4945884;28;20435;-72
2021/04/12 14:17:37;;;;;;;4.10;3.70;;;3.20;96.30;;;;;;4953044;28;20473;-72
2021/04/12 14:20:42;;;;;;;4.77;4.30;;;3.40;96.30;;;;;;4953962;28;20458;-72
2021/04/12 14:23:22;;;;;;;4.03;3.50;;;3.50;96.30;;;;;;4953790;29;20918;-73
2021/04/12 14:25:54;;;;;;;5.60;4.00;;;3.70;96.30;;;;;;4953907;28;20912;-73
2021/04/12 14:28:24;;;;;;;7.00;3.63;;;3.90;96.30;;;;;;4953310;28;20442;-72
2021/04/12 14:30:54;;;;;;;4.80;3.60;;;3.80;96.30;;;;;;4944422;28;20482;-72
2021/04/12 14:33:30;;;;;;;7.23;4.03;;;3.50;96.30;;;;;;4934710;29;20474;-72
2021/04/12 14:36:04;;;;;;;4.33;3.90;;;3.50;96.30;;;;;;4935782;29;20915;-72
2021/04/12 14:38:31;;;;;;;7.53;4.00;;;3.50;96.30;;;;;;4937979;29;20489;-72
2021/04/12 14:41:02;;;;;;;4.70;4.20;;;3.40;96.30;;;;;;4936521;28;20462;-72
2021/04/12 14:43:38;;;;;;;7.57;4.03;;;3.50;96.30;;;;;;4962548;28;20455;-71
2021/04/12 14:46:16;;;;;;;4.77;3.80;;;3.60;96.30;;;;;;4948475;28;20428;-73
2021/04/12 14:48:50;;;;;;;4.20;3.80;;;3.70;96.30;;;;;;4952044;28;20511;-72
2021/04/12 14:51:19;;;;;;;8.63;4.37;;;3.80;96.30;;;;;;4952164;28;20952;-72
2021/04/12 14:53:48;;;;;;;3.83;3.20;;;3.80;96.30;;;;;;4934988;29;20423;-72
2021/04/12 14:56:25;;;;;;;4.37;2.90;;;3.80;96.30;;;;;;4952574;28;20424;-72
2021/04/12 14:58:57;;;;;;;9.33;4.53;;;3.80;96.30;;;;;;4934084;29;20469;-72
2021/04/12 15:01:50;;;;;;;4.23;3.00;;;3.70;96.30;;;;;;4952365;29;20465;-73
2021/04/12 15:04:24;;;;;;;5.03;2.60;;;3.70;96.30;;;;;;4938710;29;20422;-71
2021/04/12 15:07:04;;;;;;;4.13;2.90;;;3.60;96.30;;;;;;4942045;29;20508;-71
2021/04/12 15:09:51;;;;;;;6.67;3.00;;;3.70;96.30;;;;;;4954530;29;20494;-72
2021/04/12 15:12:20;;;;;;;5.70;2.53;;;3.70;96.30;;;;;;4952265;28;20447;-72
2021/04/12 15:14:51;;;;;;;3.10;2.80;;;3.60;96.30;;;;;;4937735;29;20419;-72
2021/04/12 15:17:41;;;;;;;3.67;2.47;;;3.50;96.30;;;;;;4935696;29;20439;-73
2021/04/12 15:20:20;;;;;;;5.03;2.47;;;3.50;96.30;;;;;;4952423;28;20463;-73
2021/04/12 15:22:55;;;;;;;3.93;2.50;;;3.50;96.30;;;;;;4951817;28;20498;-72
2021/04/12 15:25:31;;;;;;;4.27;3.20;;;3.50;96.30;;;;;;4963876;28;20426;-73
2021/04/12 15:28:20;;;;;;;4.20;3.00;;;3.40;96.30;;;;;;4955898;28;20757;-72
2021/04/12 15:31:07;;;;;;;5.40;2.83;;;3.20;96.30;;;;;;4956215;28;20407;-73
2021/04/12 15:33:46;;;;;;;4.80;2.83;;;3.20;96.30;;;;;;4956653;29;20439;-72
2021/04/12 15:36:50;;;;;;;6.97;2.93;;;3.00;96.30;;;;;;4939893;28;20407;-72
2021/04/12 15:39:29;;;;;;;7.50;2.30;;;2.90;96.30;;;;;;4936764;29;20813;-72
2021/04/12 15:42:03;;;;;;;3.67;2.83;;;2.90;96.30;;;;;;4970044;28;20446;-72
2021/04/12 15:44:37;;;;;;;5.73;2.97;;;2.80;96.30;;;;;;4956255;29;20461;-73
2021/04/12 15:47:19;;;;;;;3.60;2.87;;;2.80;96.30;;;;;;4955463;28;20494;-72
2021/04/12 15:50:08;;;;;;;4.03;2.87;;;2.80;96.30;;;;;;4968007;28;20492;-72
2021/04/12 15:52:41;;;;;;;4.00;2.93;;;2.70;96.30;;;;;;4956766;28;20431;-72
2021/04/12 15:55:26;;;;;;;5.97;3.53;;;2.70;96.30;;;;;;4955340;28;20883;-72
2021/04/12 15:58:11;;;;;;;3.53;2.63;;;2.60;96.30;;;;;;4956348;28;20426;-73
2021/04/12 16:00:41;;;;;;;3.50;3.20;;;2.50;96.30;;;;;;4955273;28;20426;-72
2021/04/12 16:03:21;;;;;;;4.23;3.00;;;2.40;96.30;;;;;;4957013;28;20763;-73
2021/04/12 16:06:05;;;;;;;7.10;4.27;;;2.40;96.30;;;;;;4974934;28;20437;-72
2021/04/12 16:08:58;;;;;;;4.03;3.40;;;2.30;96.30;;;;;;4975658;28;20406;-73
2021/04/12 16:11:30;;;;;;;3.80;3.13;;;2.40;96.30;;;;;;4974010;28;20897;-72
2021/04/12 16:14:14;;;;;;;4.10;3.70;;;2.40;96.30;;;;;;4951152;28;20422;-72
2021/04/12 16:16:42;;;;;;;5.23;3.43;;;2.40;96.30;;;;;;4950773;28;20405;-72
2021/04/12 16:19:36;;;;;;;6.87;3.00;;;2.30;96.30;;;;;;4955985;29;20454;-72
2021/04/12 16:22:29;;;;;;;4.67;3.90;;;2.30;96.30;;;;;;4945655;29;20435;-73
2021/04/12 16:25:19;;;;;;;7.10;3.87;;;2.20;96.30;;;;;;4941521;29;20422;-73
2021/04/12 16:27:55;;;;;;;3.63;3.33;;;2.20;96.30;;;;;;4937081;29;20411;-72
2021/04/12 16:30:33;;;;;;;4.00;3.30;;;2.20;96.30;;;;;;4936056;29;20515;-72
2021/04/12 16:33:09;;;;;;;6.73;3.40;;;2.20;96.30;;;;;;4944124;28;20505;-72
2021/04/12 16:35:40;;;;;;;6.70;3.60;;;2.10;96.30;;;;;;4956357;28;20404;-72
2021/04/12 16:38:12;;;;;;;6.53;3.80;;;2.10;96.30;;;;;;4955681;28;20410;-72
2021/04/12 16:40:51;;;;;;;4.07;3.53;;;2.20;96.30;;;;;;4955985;29;20517;-71
2021/04/12 16:43:34;;;;;;;6.17;3.40;;;2.10;96.30;;;;;;4956772;29;20462;-72
2021/04/12 16:46:08;;;;;;;6.17;3.33;;;2.10;96.30;;;;;;4955568;28;20844;-73
2021/04/12 16:48:40;;;;;;;5.53;3.23;;;2.10;96.30;;;;;;4954883;29;20423;-72
2021/04/12 16:51:13;;;;;;;5.30;3.13;;;2.00;96.30;;;;;;4945762;28;20953;-72
2021/04/12 16:54:07;;;;;;;3.57;2.87;;;2.00;96.30;;;;;;4940222;29;20423;-72
2021/04/12 16:56:47;;;;;;;7.70;2.90;;;2.10;96.30;;;;;;4943732;29;20506;-73
2021/04/12 16:59:40;;;;;;;7.33;3.40;;;2.10;96.30;;;;;;4943134;29;20458;-72
2021/04/12 17:02:24;;;;;;;4.37;2.40;;;2.10;96.30;;;;;;4941489;29;20444;-72
2021/04/12 17:04:58;;;;;;;4.20;2.87;;;2.10;96.30;;;;;;4948636;29;20406;-72
2021/04/12 17:07:42;;;;;;;5.00;2.53;;;2.00;96.30;;;;;;4943545;28;20404;-72
2021/04/12 17:10:45;;;;;;;3.70;2.33;;;2.00;96.30;;;;;;4957506;28;20904;-72
2021/04/12 17:13:44;;;;;;;7.80;2.20;;;1.90;96.30;;;;;;4947985;29;20414;-73
2021/04/12 17:16:31;;;;;;;5.60;2.40;;;1.80;96.30;;;;;;4946459;29;20787;-73
2021/04/12 17:19:26;;;;;;;2.70;2.00;;;1.80;96.30;;;;;;4948684;29;20986;-72
2021/04/12 17:22:27;;;;;;;5.90;2.30;;;1.80;96.30;;;;;;4954193;28;20446;-72
2021/04/12 17:25:23;;;;;;;3.73;1.83;;;1.70;96.30;;;;;;4954309;29;20430;-72
2021/04/12 17:28:18;;;;;;;6.13;2.20;;;1.70;96.30;;;;;;4953671;28;20417;-72
2021/04/12 17:31:19;;;;;;;3.00;2.40;;;1.70;96.30;;;;;;4954277;28;20458;-72
2021/04/12 17:34:21;;;;;;;4.90;2.33;;;1.60;96.30;;;;;;4966478;28;20819;-72
2021/04/12 17:36:52;;;;;;;3.97;2.40;;;1.60;96.30;;;;;;4970616;28;20421;-72
2021/04/12 17:39:38;;;;;;;4.60;2.47;;;1.60;96.30;;;;;;4973093;28;20923;-72
2021/04/12 17:42:28;;;;;;;6.07;2.03;;;1.50;96.30;;;;;;4973531;28;20437;-72
2021/04/12 17:44:59;;;;;;;4.57;3.40;;;1.50;96.30;;;;;;4954355;28;20442;-72
2021/04/12 17:47:33;;;;;;;13.50;3.40;;;1.60;96.30;;;;;;4951865;28;20454;-72
2021/04/12 17:50:29;;;;;;;6.10;3.60;;;1.50;96.30;;;;;;4950419;28;20943;-72
2021/04/12 17:53:04;;;;;;;6.33;2.97;;;1.50;96.30;;;;;;4935517;29;20473;-73
2021/04/12 17:55:33;;;;;;;5.20;3.07;;;1.40;96.30;;;;;;4945008;28;20454;-73
2021/04/12 17:58:29;;;;;;;9.97;3.80;;;1.40;96.30;;;;;;4957884;28;20471;-73
2021/04/12 18:01:01;;;;;;;8.87;3.47;;;1.30;96.30;;;;;;4967016;28;20437;-73
2021/04/12 18:03:34;;;;;;;2.60;2.33;;;1.30;96.30;;;;;;4953803;29;20403;-73
2021/04/12 18:06:00;;;;;;;5.63;2.80;;;1.30;96.30;;;;;;4941460;28;20433;-73
2021/04/12 18:08:33;;;;;;;4.23;3.17;;;1.30;96.30;;;;;;4933912;29;20494;-73
2021/04/12 18:11:03;;;;;;;4.13;3.70;;;1.30;96.30;;;;;;4934816;29;20203;-73
2021/04/12 18:13:34;;;;;;;6.23;3.60;;;1.30;96.30;;;;;;4934409;29;20915;-73
2021/04/12 18:16:13;;;;;;;4.23;2.43;;;1.20;96.30;;;;;;4934608;29;20399;-73
2021/04/12 18:18:48;;;;;;;2.70;1.70;;;1.20;96.30;;;;;;4933766;29;20447;-74
2021/04/12 18:21:43;;;;;;;5.20;3.23;;;1.10;96.30;;;;;;4934344;29;20438;-73
2021/04/12 18:24:18;;;;;;;5.70;4.00;;;1.00;96.30;;;;;;4934111;29;20423;-74
2021/04/12 18:26:48;;;;;;;6.43;2.97;;;1.10;96.30;;;;;;4963735;23;20492;-80
2021/04/12 18:29:20;;;;;;;8.90;2.27;;;1.10;96.30;;;;;;4970557;28;20479;-80